sensor_id;sensor_type;location;lat;lon;timestamp;P1;durP1;ratioP1;P2;durP2;ratioP2
21299;SDS011;10809;49.476;11.016;2023-04-03T00:00:27;1.00;;;0.70;;
21299;SDS011;10809;49.476;11.016;2023-04-03T00:02:57;0.63;;;0.63;;
21299;SDS011;10809;49.476;11.016;2023-04-03T00:05:31;0.80;;;0.63;;
21299;SDS011;10809;49.476;11.016;2023-04-03T00:08:01;0.80;;;0.80;;
21299;SDS011;10809;49.476;11.016;2023-04-03T00:10:32;1.07;;;0.80;;
21299;SDS011;10809;49.476;11.016;2023-04-03T00:13:03;0.70;;;0.70;;
21299;SDS011;10809;49.476;11.016;2023-04-03T00:15:34;1.90;;;0.80;;
21299;SDS011;10809;49.476;11.016;2023-04-03T00:18:06;1.50;;;0.90;;
21299;SDS011;10809;49.476;11.016;2023-04-03T00:20:36;1.27;;;0.83;;
21299;SDS011;10809;49.476;11.016;2023-04-03T00:23:10;2.33;;;1.03;;
21299;SDS011;10809;49.476;11.016;2023-04-03T00:25:41;1.87;;;0.90;;
21299;SDS011;10809;49.476;11.016;2023-04-03T00:28:21;1.50;;;0.73;;
21299;SDS011;10809;49.476;11.016;2023-04-03T00:30:53;2.87;;;0.70;;
21299;SDS011;10809;49.476;11.016;2023-04-03T00:33:24;0.70;;;0.70;;
21299;SDS011;10809;49.476;11.016;2023-04-03T00:35:54;2.07;;;0.93;;
21299;SDS011;10809;49.476;11.016;2023-04-03T00:38:32;3.30;;;1.30;;
21299;SDS011;10809;49.476;11.016;2023-04-03T00:41:02;0.90;;;0.90;;
21299;SDS011;10809;49.476;11.016;2023-04-03T00:43:33;0.70;;;0.70;;
21299;SDS011;10809;49.476;11.016;2023-04-03T00:46:03;1.90;;;0.80;;
21299;SDS011;10809;49.476;11.016;2023-04-03T00:48:35;1.10;;;0.97;;
21299;SDS011;10809;49.476;11.016;2023-04-03T00:51:16;1.10;;;1.10;;
21299;SDS011;10809;49.476;11.016;2023-04-03T00:53:58;0.77;;;0.77;;
21299;SDS011;10809;49.476;11.016;2023-04-03T00:56:30;0.60;;;0.60;;
21299;SDS011;10809;49.476;11.016;2023-04-03T00:59:06;1.10;;;1.00;;
21299;SDS011;10809;49.476;11.016;2023-04-03T01:01:40;1.10;;;0.70;;
21299;SDS011;10809;49.476;11.016;2023-04-03T01:04:26;0.87;;;0.87;;
21299;SDS011;10809;49.476;11.016;2023-04-03T01:07:04;1.80;;;1.10;;
21299;SDS011;10809;49.476;11.016;2023-04-03T01:09:57;1.80;;;0.90;;
21299;SDS011;10809;49.476;11.016;2023-04-03T01:12:33;1.03;;;0.93;;
21299;SDS011;10809;49.476;11.016;2023-04-03T01:15:17;0.70;;;0.70;;
21299;SDS011;10809;49.476;11.016;2023-04-03T01:17:57;2.07;;;0.80;;
21299;SDS011;10809;49.476;11.016;2023-04-03T01:25:41;0.70;;;0.70;;
21299;SDS011;10809;49.476;11.016;2023-04-03T01:28:19;2.47;;;0.90;;
21299;SDS011;10809;49.476;11.016;2023-04-03T01:31:00;1.10;;;0.90;;
21299;SDS011;10809;49.476;11.016;2023-04-03T01:33:44;1.00;;;0.90;;
21299;SDS011;10809;49.476;11.016;2023-04-03T01:36:16;0.70;;;0.70;;
21299;SDS011;10809;49.476;11.016;2023-04-03T01:38:53;0.77;;;0.77;;
21299;SDS011;10809;49.476;11.016;2023-04-03T01:41:24;1.00;;;1.00;;
21299;SDS011;10809;49.476;11.016;2023-04-03T01:43:59;0.90;;;0.90;;
21299;SDS011;10809;49.476;11.016;2023-04-03T01:46:29;1.17;;;1.10;;
21299;SDS011;10809;49.476;11.016;2023-04-03T01:49:00;1.03;;;1.00;;
21299;SDS011;10809;49.476;11.016;2023-04-03T01:51:37;1.07;;;1.03;;
21299;SDS011;10809;49.476;11.016;2023-04-03T01:54:08;1.10;;;1.00;;
21299;SDS011;10809;49.476;11.016;2023-04-03T01:56:38;0.77;;;0.77;;
21299;SDS011;10809;49.476;11.016;2023-04-03T01:59:09;1.13;;;1.00;;
21299;SDS011;10809;49.476;11.016;2023-04-03T02:01:40;1.40;;;1.30;;
21299;SDS011;10809;49.476;11.016;2023-04-03T02:04:11;0.80;;;0.80;;
21299;SDS011;10809;49.476;11.016;2023-04-03T02:06:42;0.80;;;0.80;;
21299;SDS011;10809;49.476;11.016;2023-04-03T02:09:12;0.90;;;0.80;;
21299;SDS011;10809;49.476;11.016;2023-04-03T02:11:43;1.07;;;0.90;;
21299;SDS011;10809;49.476;11.016;2023-04-03T02:14:14;0.70;;;0.67;;
21299;SDS011;10809;49.476;11.016;2023-04-03T02:16:44;0.80;;;0.80;;
21299;SDS011;10809;49.476;11.016;2023-04-03T02:19:15;0.70;;;0.53;;
21299;SDS011;10809;49.476;11.016;2023-04-03T02:21:46;1.47;;;0.80;;
21299;SDS011;10809;49.476;11.016;2023-04-03T02:24:18;1.00;;;0.90;;
21299;SDS011;10809;49.476;11.016;2023-04-03T02:26:51;1.43;;;0.70;;
21299;SDS011;10809;49.476;11.016;2023-04-03T02:29:22;2.00;;;0.80;;
21299;SDS011;10809;49.476;11.016;2023-04-03T02:31:52;1.03;;;0.80;;
21299;SDS011;10809;49.476;11.016;2023-04-03T02:34:36;1.53;;;0.70;;
21299;SDS011;10809;49.476;11.016;2023-04-03T02:37:06;0.60;;;0.60;;
21299;SDS011;10809;49.476;11.016;2023-04-03T02:39:37;2.60;;;0.80;;
21299;SDS011;10809;49.476;11.016;2023-04-03T02:42:07;1.00;;;0.90;;
21299;SDS011;10809;49.476;11.016;2023-04-03T02:44:38;1.30;;;0.67;;
21299;SDS011;10809;49.476;11.016;2023-04-03T02:47:18;1.90;;;0.87;;
21299;SDS011;10809;49.476;11.016;2023-04-03T02:50:04;0.93;;;0.93;;
21299;SDS011;10809;49.476;11.016;2023-04-03T02:52:36;1.10;;;0.70;;
21299;SDS011;10809;49.476;11.016;2023-04-03T02:55:06;0.80;;;0.80;;
21299;SDS011;10809;49.476;11.016;2023-04-03T02:57:41;2.33;;;0.77;;
21299;SDS011;10809;49.476;11.016;2023-04-03T03:00:12;4.10;;;1.10;;
21299;SDS011;10809;49.476;11.016;2023-04-03T03:02:44;2.47;;;1.40;;
21299;SDS011;10809;49.476;11.016;2023-04-03T03:05:20;1.20;;;0.97;;
21299;SDS011;10809;49.476;11.016;2023-04-03T03:08:03;3.53;;;1.10;;
21299;SDS011;10809;49.476;11.016;2023-04-03T03:10:33;0.93;;;0.87;;
21299;SDS011;10809;49.476;11.016;2023-04-03T03:13:07;2.00;;;1.13;;
21299;SDS011;10809;49.476;11.016;2023-04-03T03:15:37;2.67;;;1.00;;
21299;SDS011;10809;49.476;11.016;2023-04-03T03:18:07;3.00;;;1.00;;
21299;SDS011;10809;49.476;11.016;2023-04-03T03:20:38;1.20;;;1.10;;
21299;SDS011;10809;49.476;11.016;2023-04-03T03:23:08;1.43;;;0.90;;
21299;SDS011;10809;49.476;11.016;2023-04-03T03:25:39;2.87;;;1.03;;
21299;SDS011;10809;49.476;11.016;2023-04-03T03:28:11;1.10;;;0.90;;
21299;SDS011;10809;49.476;11.016;2023-04-03T03:33:42;1.40;;;0.80;;
21299;SDS011;10809;49.476;11.016;2023-04-03T03:36:12;1.73;;;1.00;;
21299;SDS011;10809;49.476;11.016;2023-04-03T03:38:46;1.30;;;0.90;;
21299;SDS011;10809;49.476;11.016;2023-04-03T03:41:16;1.00;;;0.90;;
21299;SDS011;10809;49.476;11.016;2023-04-03T03:43:48;0.83;;;0.83;;
21299;SDS011;10809;49.476;11.016;2023-04-03T03:46:24;1.47;;;0.80;;
21299;SDS011;10809;49.476;11.016;2023-04-03T03:48:56;0.80;;;0.80;;
21299;SDS011;10809;49.476;11.016;2023-04-03T03:51:27;1.90;;;1.27;;
21299;SDS011;10809;49.476;11.016;2023-04-03T03:53:58;2.23;;;0.93;;
21299;SDS011;10809;49.476;11.016;2023-04-03T03:56:28;0.80;;;0.80;;
21299;SDS011;10809;49.476;11.016;2023-04-03T03:58:59;3.33;;;1.10;;
21299;SDS011;10809;49.476;11.016;2023-04-03T04:01:32;1.20;;;1.13;;
21299;SDS011;10809;49.476;11.016;2023-04-03T04:04:15;1.87;;;1.00;;
21299;SDS011;10809;49.476;11.016;2023-04-03T04:06:46;0.90;;;0.90;;
21299;SDS011;10809;49.476;11.016;2023-04-03T04:09:17;4.03;;;1.40;;
21299;SDS011;10809;49.476;11.016;2023-04-03T04:11:54;4.20;;;1.20;;
21299;SDS011;10809;49.476;11.016;2023-04-03T04:14:29;1.03;;;1.00;;
21299;SDS011;10809;49.476;11.016;2023-04-03T04:17:00;3.57;;;1.30;;
21299;SDS011;10809;49.476;11.016;2023-04-03T04:19:32;3.67;;;1.33;;
21299;SDS011;10809;49.476;11.016;2023-04-03T04:22:06;3.37;;;1.47;;
21299;SDS011;10809;49.476;11.016;2023-04-03T04:24:37;1.57;;;1.20;;
21299;SDS011;10809;49.476;11.016;2023-04-03T04:27:08;4.00;;;1.80;;
21299;SDS011;10809;49.476;11.016;2023-04-03T04:29:40;2.87;;;1.60;;
21299;SDS011;10809;49.476;11.016;2023-04-03T04:32:12;4.93;;;1.53;;
21299;SDS011;10809;49.476;11.016;2023-04-03T04:34:45;1.60;;;1.50;;
21299;SDS011;10809;49.476;11.016;2023-04-03T04:37:19;2.33;;;1.50;;
21299;SDS011;10809;49.476;11.016;2023-04-03T04:39:51;2.57;;;1.43;;
21299;SDS011;10809;49.476;11.016;2023-04-03T04:42:22;3.20;;;1.53;;
21299;SDS011;10809;49.476;11.016;2023-04-03T04:44:54;3.40;;;1.10;;
21299;SDS011;10809;49.476;11.016;2023-04-03T04:47:28;4.20;;;1.40;;
21299;SDS011;10809;49.476;11.016;2023-04-03T04:50:00;1.40;;;1.30;;
21299;SDS011;10809;49.476;11.016;2023-04-03T04:52:31;3.23;;;1.43;;
21299;SDS011;10809;49.476;11.016;2023-04-03T04:55:01;2.57;;;1.77;;
21299;SDS011;10809;49.476;11.016;2023-04-03T04:57:32;2.60;;;1.60;;
21299;SDS011;10809;49.476;11.016;2023-04-03T05:00:04;2.13;;;1.50;;
21299;SDS011;10809;49.476;11.016;2023-04-03T05:02:38;3.10;;;1.10;;
21299;SDS011;10809;49.476;11.016;2023-04-03T05:05:20;3.87;;;1.30;;
21299;SDS011;10809;49.476;11.016;2023-04-03T05:07:54;1.73;;;1.10;;
21299;SDS011;10809;49.476;11.016;2023-04-03T05:10:25;4.73;;;1.57;;
21299;SDS011;10809;49.476;11.016;2023-04-03T05:12:56;4.20;;;1.40;;
21299;SDS011;10809;49.476;11.016;2023-04-03T05:15:27;2.67;;;1.70;;
21299;SDS011;10809;49.476;11.016;2023-04-03T05:17:58;1.43;;;1.33;;
21299;SDS011;10809;49.476;11.016;2023-04-03T05:20:34;2.57;;;1.27;;
21299;SDS011;10809;49.476;11.016;2023-04-03T05:23:06;2.03;;;1.83;;
21299;SDS011;10809;49.476;11.016;2023-04-03T05:25:42;2.27;;;1.27;;
21299;SDS011;10809;49.476;11.016;2023-04-03T05:28:16;2.83;;;1.73;;
21299;SDS011;10809;49.476;11.016;2023-04-03T05:30:57;2.40;;;1.20;;
21299;SDS011;10809;49.476;11.016;2023-04-03T05:33:33;2.17;;;1.20;;
21299;SDS011;10809;49.476;11.016;2023-04-03T05:36:04;2.87;;;1.57;;
21299;SDS011;10809;49.476;11.016;2023-04-03T05:38:38;4.50;;;2.00;;
21299;SDS011;10809;49.476;11.016;2023-04-03T05:41:17;3.33;;;1.30;;
21299;SDS011;10809;49.476;11.016;2023-04-03T05:43:51;4.13;;;1.50;;
21299;SDS011;10809;49.476;11.016;2023-04-03T05:46:28;1.57;;;1.40;;
21299;SDS011;10809;49.476;11.016;2023-04-03T05:49:03;4.23;;;1.40;;
21299;SDS011;10809;49.476;11.016;2023-04-03T05:51:36;2.97;;;1.30;;
21299;SDS011;10809;49.476;11.016;2023-04-03T05:54:26;2.13;;;1.10;;
21299;SDS011;10809;49.476;11.016;2023-04-03T05:57:21;3.43;;;1.60;;
21299;SDS011;10809;49.476;11.016;2023-04-03T05:59:54;1.50;;;1.33;;
21299;SDS011;10809;49.476;11.016;2023-04-03T06:02:26;1.10;;;0.93;;
21299;SDS011;10809;49.476;11.016;2023-04-03T06:05:12;1.97;;;1.20;;
21299;SDS011;10809;49.476;11.016;2023-04-03T06:07:44;3.17;;;1.30;;
21299;SDS011;10809;49.476;11.016;2023-04-03T06:10:15;1.37;;;1.27;;
21299;SDS011;10809;49.476;11.016;2023-04-03T06:12:50;1.67;;;1.40;;
21299;SDS011;10809;49.476;11.016;2023-04-03T06:15:21;3.27;;;1.40;;
21299;SDS011;10809;49.476;11.016;2023-04-03T06:17:52;4.30;;;1.30;;
21299;SDS011;10809;49.476;11.016;2023-04-03T06:20:23;3.13;;;0.90;;
21299;SDS011;10809;49.476;11.016;2023-04-03T06:22:54;5.00;;;1.33;;
21299;SDS011;10809;49.476;11.016;2023-04-03T06:25:28;1.43;;;0.97;;
21299;SDS011;10809;49.476;11.016;2023-04-03T06:27:59;1.90;;;0.90;;
21299;SDS011;10809;49.476;11.016;2023-04-03T06:30:30;1.33;;;0.87;;
21299;SDS011;10809;49.476;11.016;2023-04-03T06:33:01;2.33;;;1.30;;
21299;SDS011;10809;49.476;11.016;2023-04-03T06:35:31;3.90;;;1.27;;
21299;SDS011;10809;49.476;11.016;2023-04-03T06:38:05;1.17;;;1.00;;
21299;SDS011;10809;49.476;11.016;2023-04-03T06:40:39;1.90;;;1.00;;
21299;SDS011;10809;49.476;11.016;2023-04-03T06:43:13;8.23;;;1.30;;
21299;SDS011;10809;49.476;11.016;2023-04-03T06:45:51;3.90;;;1.40;;
21299;SDS011;10809;49.476;11.016;2023-04-03T06:48:22;4.90;;;1.13;;
21299;SDS011;10809;49.476;11.016;2023-04-03T06:50:53;1.37;;;0.73;;
21299;SDS011;10809;49.476;11.016;2023-04-03T06:53:24;2.90;;;0.87;;
21299;SDS011;10809;49.476;11.016;2023-04-03T06:55:55;1.30;;;1.10;;
21299;SDS011;10809;49.476;11.016;2023-04-03T06:58:31;2.30;;;1.40;;
21299;SDS011;10809;49.476;11.016;2023-04-03T07:01:02;3.37;;;1.23;;
21299;SDS011;10809;49.476;11.016;2023-04-03T07:03:39;2.00;;;1.50;;
21299;SDS011;10809;49.476;11.016;2023-04-03T07:06:17;2.30;;;1.80;;
21299;SDS011;10809;49.476;11.016;2023-04-03T07:08:52;7.20;;;1.20;;
21299;SDS011;10809;49.476;11.016;2023-04-03T07:11:26;4.47;;;1.47;;
21299;SDS011;10809;49.476;11.016;2023-04-03T07:14:12;3.80;;;1.23;;
21299;SDS011;10809;49.476;11.016;2023-04-03T07:16:46;3.30;;;1.70;;
21299;SDS011;10809;49.476;11.016;2023-04-03T07:19:35;3.57;;;1.50;;
21299;SDS011;10809;49.476;11.016;2023-04-03T07:22:07;3.93;;;1.57;;
21299;SDS011;10809;49.476;11.016;2023-04-03T07:24:41;4.03;;;2.07;;
21299;SDS011;10809;49.476;11.016;2023-04-03T07:27:12;3.87;;;1.23;;
21299;SDS011;10809;49.476;11.016;2023-04-03T07:29:43;3.67;;;1.47;;
21299;SDS011;10809;49.476;11.016;2023-04-03T07:32:14;3.67;;;1.50;;
21299;SDS011;10809;49.476;11.016;2023-04-03T07:34:46;2.57;;;1.40;;
21299;SDS011;10809;49.476;11.016;2023-04-03T07:37:16;3.97;;;1.40;;
21299;SDS011;10809;49.476;11.016;2023-04-03T07:39:48;3.77;;;1.83;;
21299;SDS011;10809;49.476;11.016;2023-04-03T07:42:19;2.73;;;1.70;;
21299;SDS011;10809;49.476;11.016;2023-04-03T07:44:49;5.10;;;1.90;;
21299;SDS011;10809;49.476;11.016;2023-04-03T07:47:23;3.47;;;1.73;;
21299;SDS011;10809;49.476;11.016;2023-04-03T07:49:53;3.97;;;1.70;;
21299;SDS011;10809;49.476;11.016;2023-04-03T07:52:24;1.93;;;1.50;;
21299;SDS011;10809;49.476;11.016;2023-04-03T07:55:02;5.97;;;2.23;;
21299;SDS011;10809;49.476;11.016;2023-04-03T07:57:34;4.40;;;2.20;;
21299;SDS011;10809;49.476;11.016;2023-04-03T08:00:08;3.60;;;1.60;;
21299;SDS011;10809;49.476;11.016;2023-04-03T08:02:45;2.00;;;1.20;;
21299;SDS011;10809;49.476;11.016;2023-04-03T08:05:21;3.57;;;1.50;;
21299;SDS011;10809;49.476;11.016;2023-04-03T08:07:52;2.50;;;1.50;;
21299;SDS011;10809;49.476;11.016;2023-04-03T08:10:22;1.53;;;1.30;;
21299;SDS011;10809;49.476;11.016;2023-04-03T08:12:56;1.47;;;1.30;;
21299;SDS011;10809;49.476;11.016;2023-04-03T08:15:30;1.57;;;1.30;;
21299;SDS011;10809;49.476;11.016;2023-04-03T08:18:04;3.80;;;1.17;;
21299;SDS011;10809;49.476;11.016;2023-04-03T08:20:35;3.60;;;1.43;;
21299;SDS011;10809;49.476;11.016;2023-04-03T08:23:12;3.20;;;1.37;;
21299;SDS011;10809;49.476;11.016;2023-04-03T08:25:42;3.17;;;1.90;;
21299;SDS011;10809;49.476;11.016;2023-04-03T08:28:13;2.20;;;1.20;;
21299;SDS011;10809;49.476;11.016;2023-04-03T08:30:44;1.33;;;1.23;;
21299;SDS011;10809;49.476;11.016;2023-04-03T08:33:16;1.10;;;1.00;;
21299;SDS011;10809;49.476;11.016;2023-04-03T08:35:47;5.20;;;1.50;;
21299;SDS011;10809;49.476;11.016;2023-04-03T08:38:17;1.87;;;1.27;;
21299;SDS011;10809;49.476;11.016;2023-04-03T08:40:59;1.93;;;1.33;;
21299;SDS011;10809;49.476;11.016;2023-04-03T08:47:28;3.37;;;0.87;;
21299;SDS011;10809;49.476;11.016;2023-04-03T08:50:17;2.47;;;1.40;;
21299;SDS011;10809;49.476;11.016;2023-04-03T08:52:52;1.90;;;1.00;;
21299;SDS011;10809;49.476;11.016;2023-04-03T08:58:24;0.93;;;0.80;;
21299;SDS011;10809;49.476;11.016;2023-04-03T09:03:40;2.63;;;1.30;;
21299;SDS011;10809;49.476;11.016;2023-04-03T09:14:34;1.90;;;1.27;;
21299;SDS011;10809;49.476;11.016;2023-04-03T09:17:13;2.77;;;1.23;;
21299;SDS011;10809;49.476;11.016;2023-04-03T09:22:28;2.43;;;0.93;;
21299;SDS011;10809;49.476;11.016;2023-04-03T09:25:08;1.63;;;1.17;;
21299;SDS011;10809;49.476;11.016;2023-04-03T09:27:53;2.37;;;1.47;;
21299;SDS011;10809;49.476;11.016;2023-04-03T09:30:27;1.20;;;1.03;;
21299;SDS011;10809;49.476;11.016;2023-04-03T09:32:58;1.90;;;1.13;;
21299;SDS011;10809;49.476;11.016;2023-04-03T09:35:33;1.97;;;0.80;;
21299;SDS011;10809;49.476;11.016;2023-04-03T09:40:40;2.53;;;1.40;;
21299;SDS011;10809;49.476;11.016;2023-04-03T09:43:33;2.40;;;1.10;;
21299;SDS011;10809;49.476;11.016;2023-04-03T09:49:02;2.10;;;0.90;;
21299;SDS011;10809;49.476;11.016;2023-04-03T09:51:36;3.27;;;1.57;;
21299;SDS011;10809;49.476;11.016;2023-04-03T09:54:30;1.20;;;1.07;;
21299;SDS011;10809;49.476;11.016;2023-04-03T09:57:16;3.47;;;1.30;;
21299;SDS011;10809;49.476;11.016;2023-04-03T09:59:56;1.90;;;0.93;;
21299;SDS011;10809;49.476;11.016;2023-04-03T10:02:36;1.07;;;0.80;;
21299;SDS011;10809;49.476;11.016;2023-04-03T10:10:45;1.03;;;0.70;;
21299;SDS011;10809;49.476;11.016;2023-04-03T10:13:19;0.70;;;0.70;;
21299;SDS011;10809;49.476;11.016;2023-04-03T10:15:54;1.07;;;0.50;;
21299;SDS011;10809;49.476;11.016;2023-04-03T10:21:06;1.80;;;0.80;;
21299;SDS011;10809;49.476;11.016;2023-04-03T10:23:54;1.27;;;0.63;;
21299;SDS011;10809;49.476;11.016;2023-04-03T10:29:27;3.17;;;0.80;;
21299;SDS011;10809;49.476;11.016;2023-04-03T10:32:20;0.60;;;0.60;;
21299;SDS011;10809;49.476;11.016;2023-04-03T10:37:54;1.00;;;0.93;;
21299;SDS011;10809;49.476;11.016;2023-04-03T10:40:58;4.40;;;1.10;;
21299;SDS011;10809;49.476;11.016;2023-04-03T10:43:47;2.20;;;1.00;;
21299;SDS011;10809;49.476;11.016;2023-04-03T10:46:38;2.27;;;1.00;;
21299;SDS011;10809;49.476;11.016;2023-04-03T10:51:48;2.27;;;1.10;;
21299;SDS011;10809;49.476;11.016;2023-04-03T10:57:43;2.47;;;1.10;;
21299;SDS011;10809;49.476;11.016;2023-04-03T11:00:20;2.90;;;1.87;;
21299;SDS011;10809;49.476;11.016;2023-04-03T11:03:00;2.50;;;1.37;;
21299;SDS011;10809;49.476;11.016;2023-04-03T11:05:45;2.27;;;1.20;;
21299;SDS011;10809;49.476;11.016;2023-04-03T11:11:27;0.80;;;0.80;;
21299;SDS011;10809;49.476;11.016;2023-04-03T11:16:50;1.10;;;1.00;;
21299;SDS011;10809;49.476;11.016;2023-04-03T11:19:36;2.53;;;0.90;;
21299;SDS011;10809;49.476;11.016;2023-04-03T11:25:03;1.53;;;0.87;;
21299;SDS011;10809;49.476;11.016;2023-04-03T11:28:03;1.30;;;0.90;;
21299;SDS011;10809;49.476;11.016;2023-04-03T11:30:46;1.63;;;0.87;;
21299;SDS011;10809;49.476;11.016;2023-04-03T11:33:27;3.87;;;0.90;;
21299;SDS011;10809;49.476;11.016;2023-04-03T11:36:12;2.47;;;0.80;;
21299;SDS011;10809;49.476;11.016;2023-04-03T11:38:52;1.57;;;0.97;;
21299;SDS011;10809;49.476;11.016;2023-04-03T11:41:28;1.90;;;1.10;;
21299;SDS011;10809;49.476;11.016;2023-04-03T11:44:02;1.27;;;1.00;;
21299;SDS011;10809;49.476;11.016;2023-04-03T11:58:22;2.13;;;1.13;;
21299;SDS011;10809;49.476;11.016;2023-04-03T12:16:28;0.77;;;0.77;;
21299;SDS011;10809;49.476;11.016;2023-04-03T12:19:38;0.80;;;0.80;;
21299;SDS011;10809;49.476;11.016;2023-04-03T12:22:16;2.13;;;1.10;;
21299;SDS011;10809;49.476;11.016;2023-04-03T12:24:50;0.60;;;0.60;;
21299;SDS011;10809;49.476;11.016;2023-04-03T12:27:39;3.70;;;0.90;;
21299;SDS011;10809;49.476;11.016;2023-04-03T12:30:30;1.90;;;0.73;;
21299;SDS011;10809;49.476;11.016;2023-04-03T12:33:12;2.47;;;0.97;;
21299;SDS011;10809;49.476;11.016;2023-04-03T12:41:18;1.37;;;0.77;;
21299;SDS011;10809;49.476;11.016;2023-04-03T12:47:23;1.47;;;0.83;;
21299;SDS011;10809;49.476;11.016;2023-04-03T12:50:02;1.60;;;0.77;;
21299;SDS011;10809;49.476;11.016;2023-04-03T12:52:45;1.10;;;0.60;;
21299;SDS011;10809;49.476;11.016;2023-04-03T12:55:40;1.57;;;0.90;;
21299;SDS011;10809;49.476;11.016;2023-04-03T12:58:20;3.97;;;1.47;;
21299;SDS011;10809;49.476;11.016;2023-04-03T13:01:00;0.83;;;0.80;;
21299;SDS011;10809;49.476;11.016;2023-04-03T13:03:44;3.07;;;0.97;;
21299;SDS011;10809;49.476;11.016;2023-04-03T13:06:27;1.03;;;0.50;;
21299;SDS011;10809;49.476;11.016;2023-04-03T13:09:02;1.60;;;0.70;;
21299;SDS011;10809;49.476;11.016;2023-04-03T13:11:35;1.37;;;0.67;;
21299;SDS011;10809;49.476;11.016;2023-04-03T13:14:16;1.43;;;0.90;;
21299;SDS011;10809;49.476;11.016;2023-04-03T13:16:59;0.50;;;0.50;;
21299;SDS011;10809;49.476;11.016;2023-04-03T13:19:34;2.30;;;1.00;;
21299;SDS011;10809;49.476;11.016;2023-04-03T13:22:27;1.17;;;0.73;;
21299;SDS011;10809;49.476;11.016;2023-04-03T13:24:59;3.17;;;1.10;;
21299;SDS011;10809;49.476;11.016;2023-04-03T13:27:35;0.97;;;0.80;;
21299;SDS011;10809;49.476;11.016;2023-04-03T13:30:25;2.50;;;0.83;;
21299;SDS011;10809;49.476;11.016;2023-04-03T13:33:01;1.50;;;0.70;;
21299;SDS011;10809;49.476;11.016;2023-04-03T13:38:22;1.80;;;1.10;;
21299;SDS011;10809;49.476;11.016;2023-04-03T13:40:56;0.67;;;0.67;;
21299;SDS011;10809;49.476;11.016;2023-04-03T13:43:46;2.67;;;0.70;;
21299;SDS011;10809;49.476;11.016;2023-04-03T13:46:27;0.73;;;0.60;;
21299;SDS011;10809;49.476;11.016;2023-04-03T13:49:01;1.40;;;0.90;;
21299;SDS011;10809;49.476;11.016;2023-04-03T13:58:20;1.63;;;1.07;;
21299;SDS011;10809;49.476;11.016;2023-04-03T14:03:53;1.07;;;0.97;;
21299;SDS011;10809;49.476;11.016;2023-04-03T14:06:46;0.70;;;0.60;;
21299;SDS011;10809;49.476;11.016;2023-04-03T14:09:21;1.93;;;0.77;;
21299;SDS011;10809;49.476;11.016;2023-04-03T14:11:57;0.93;;;0.77;;
21299;SDS011;10809;49.476;11.016;2023-04-03T14:14:35;2.17;;;0.90;;
21299;SDS011;10809;49.476;11.016;2023-04-03T14:17:23;3.37;;;1.33;;
21299;SDS011;10809;49.476;11.016;2023-04-03T14:19:56;6.77;;;0.93;;
21299;SDS011;10809;49.476;11.016;2023-04-03T14:22:29;0.60;;;0.60;;
21299;SDS011;10809;49.476;11.016;2023-04-03T14:25:14;1.80;;;0.70;;
21299;SDS011;10809;49.476;11.016;2023-04-03T14:27:46;1.80;;;0.93;;
21299;SDS011;10809;49.476;11.016;2023-04-03T14:30:21;0.90;;;0.83;;
21299;SDS011;10809;49.476;11.016;2023-04-03T14:32:57;1.77;;;0.90;;
21299;SDS011;10809;49.476;11.016;2023-04-03T14:35:34;1.40;;;0.83;;
21299;SDS011;10809;49.476;11.016;2023-04-03T14:38:21;1.87;;;0.60;;
21299;SDS011;10809;49.476;11.016;2023-04-03T14:40:52;0.60;;;0.60;;
21299;SDS011;10809;49.476;11.016;2023-04-03T14:43:24;4.17;;;1.00;;
21299;SDS011;10809;49.476;11.016;2023-04-03T14:45:57;1.27;;;0.90;;
21299;SDS011;10809;49.476;11.016;2023-04-03T14:48:30;1.13;;;0.73;;
21299;SDS011;10809;49.476;11.016;2023-04-03T14:51:01;1.10;;;0.70;;
21299;SDS011;10809;49.476;11.016;2023-04-03T14:53:38;1.20;;;0.90;;
21299;SDS011;10809;49.476;11.016;2023-04-03T14:56:10;2.37;;;1.03;;
21299;SDS011;10809;49.476;11.016;2023-04-03T14:58:43;2.23;;;1.00;;
21299;SDS011;10809;49.476;11.016;2023-04-03T15:01:13;1.60;;;1.00;;
21299;SDS011;10809;49.476;11.016;2023-04-03T15:03:44;1.37;;;0.77;;
21299;SDS011;10809;49.476;11.016;2023-04-03T15:06:15;1.30;;;0.90;;
21299;SDS011;10809;49.476;11.016;2023-04-03T15:08:52;1.93;;;0.70;;
21299;SDS011;10809;49.476;11.016;2023-04-03T15:11:23;1.40;;;0.77;;
21299;SDS011;10809;49.476;11.016;2023-04-03T15:13:57;3.17;;;0.93;;
21299;SDS011;10809;49.476;11.016;2023-04-03T15:16:30;3.03;;;0.90;;
21299;SDS011;10809;49.476;11.016;2023-04-03T15:19:01;4.47;;;1.17;;
21299;SDS011;10809;49.476;11.016;2023-04-03T15:21:34;2.80;;;0.97;;
21299;SDS011;10809;49.476;11.016;2023-04-03T15:24:05;1.00;;;0.90;;
21299;SDS011;10809;49.476;11.016;2023-04-03T15:26:38;2.10;;;0.83;;
21299;SDS011;10809;49.476;11.016;2023-04-03T15:29:12;1.53;;;1.17;;
21299;SDS011;10809;49.476;11.016;2023-04-03T15:31:42;0.70;;;0.67;;
21299;SDS011;10809;49.476;11.016;2023-04-03T15:34:13;1.07;;;0.70;;
21299;SDS011;10809;49.476;11.016;2023-04-03T15:36:43;0.70;;;0.70;;
21299;SDS011;10809;49.476;11.016;2023-04-03T15:39:17;1.10;;;0.80;;
21299;SDS011;10809;49.476;11.016;2023-04-03T15:41:51;0.80;;;0.67;;
21299;SDS011;10809;49.476;11.016;2023-04-03T15:44:25;1.90;;;0.90;;
21299;SDS011;10809;49.476;11.016;2023-04-03T15:46:56;3.83;;;1.03;;
21299;SDS011;10809;49.476;11.016;2023-04-03T15:49:34;3.90;;;0.77;;
21299;SDS011;10809;49.476;11.016;2023-04-03T15:52:08;3.37;;;1.33;;
21299;SDS011;10809;49.476;11.016;2023-04-03T15:54:39;2.03;;;0.60;;
21299;SDS011;10809;49.476;11.016;2023-04-03T15:57:09;1.60;;;0.93;;
21299;SDS011;10809;49.476;11.016;2023-04-03T15:59:43;1.03;;;0.70;;
21299;SDS011;10809;49.476;11.016;2023-04-03T16:02:13;1.43;;;0.80;;
21299;SDS011;10809;49.476;11.016;2023-04-03T16:04:44;1.13;;;0.80;;
21299;SDS011;10809;49.476;11.016;2023-04-03T16:07:20;2.50;;;0.80;;
21299;SDS011;10809;49.476;11.016;2023-04-03T16:09:51;2.07;;;0.63;;
21299;SDS011;10809;49.476;11.016;2023-04-03T16:12:22;0.67;;;0.63;;
21299;SDS011;10809;49.476;11.016;2023-04-03T16:14:52;1.93;;;1.00;;
21299;SDS011;10809;49.476;11.016;2023-04-03T16:17:23;3.03;;;0.70;;
21299;SDS011;10809;49.476;11.016;2023-04-03T16:19:54;3.20;;;0.80;;
21299;SDS011;10809;49.476;11.016;2023-04-03T16:22:26;1.23;;;1.10;;
21299;SDS011;10809;49.476;11.016;2023-04-03T16:24:58;2.60;;;1.37;;
21299;SDS011;10809;49.476;11.016;2023-04-03T16:27:29;2.60;;;1.20;;
21299;SDS011;10809;49.476;11.016;2023-04-03T16:30:07;1.30;;;0.90;;
21299;SDS011;10809;49.476;11.016;2023-04-03T16:32:40;3.20;;;0.80;;
21299;SDS011;10809;49.476;11.016;2023-04-03T16:35:14;4.77;;;1.07;;
21299;SDS011;10809;49.476;11.016;2023-04-03T16:37:44;1.03;;;0.73;;
21299;SDS011;10809;49.476;11.016;2023-04-03T16:40:15;1.80;;;0.77;;
21299;SDS011;10809;49.476;11.016;2023-04-03T16:42:46;1.13;;;1.03;;
21299;SDS011;10809;49.476;11.016;2023-04-03T16:45:19;1.70;;;0.87;;
21299;SDS011;10809;49.476;11.016;2023-04-03T16:47:50;3.40;;;0.77;;
21299;SDS011;10809;49.476;11.016;2023-04-03T16:50:21;0.77;;;0.70;;
21299;SDS011;10809;49.476;11.016;2023-04-03T16:52:54;2.57;;;0.97;;
21299;SDS011;10809;49.476;11.016;2023-04-03T16:55:28;1.83;;;0.80;;
21299;SDS011;10809;49.476;11.016;2023-04-03T16:58:08;1.10;;;0.87;;
21299;SDS011;10809;49.476;11.016;2023-04-03T17:00:51;1.67;;;1.00;;
21299;SDS011;10809;49.476;11.016;2023-04-03T17:03:29;2.13;;;0.53;;
21299;SDS011;10809;49.476;11.016;2023-04-03T17:06:00;1.57;;;0.80;;
21299;SDS011;10809;49.476;11.016;2023-04-03T17:08:30;1.33;;;0.97;;
21299;SDS011;10809;49.476;11.016;2023-04-03T17:11:01;2.00;;;0.50;;